Olot, Spain
Current Conditions -  °F | °C
As of 6:00 PM on Friday 24 Oct 2014 (Local Time) from LEGE Reporting Station
Clear Clear  
Wind Chill: 72°   Ceiling: Unl
Heat Index: 72°   Visibility: 6mi
Dew Point: 55°   Wind: 7mph
Humidity: 57%   Direction: 190°S
Pressure: 29.97"   Gusts: NA
Location:  42.18°N, 2.49°E
Report Text: LEGE 241600Z 19006KT CAVOK 22/13 Q1015
Loading
Personal Weather Stations






























Interactive Weather Map
Tropical Storm Tracking
New forecast layout! Learn more

10-Day Weather Forecast

Advertisements
Track Severe Weather on mobile